Portada
METAR-TAF:

METAR-TAF

Aeropuertos :

Volgogrado, Rusia

Aeropuerto Internacional de Volgogrado

latitud: 48-47N, longitud: 044-22E, altitud: 145 m

Observación

El informe se hizo hace 29 minutos, a las 18:00 UTC
Viento 6 kt del norte-noroeste
Temperatura 18°C
Humedad 49%
Presión 1009 hPa
Visibilidad 10 km o más
sin nubes por debajo de 1500 m y sin presencia de cumulonimbus.

METAR: URWW 221800Z 33003MPS CAVOK 18/07 Q1009 R24/010070 NOSIG

Hora: 21:29 (18:29 UTC)

Pronóstico

El informe se hizo hace 1 hora y 31 minutos, a las 16:58 UTC
Pronóstico válido del 22 a las 18 UTC al 23 a las 03 UTC
Viento 12 kt del norte-noroeste con ráfagas de 21 kt
Visibilidad 10 km o más
Nubes dispersas a una altura de 3000 ft, Cumulonimbus.
Cielo nuboso a una altura de 10000 ft
Temporalmente
del 22 a las 18 UTC al 22 a las 24 UTC
Viento 6 kt del oeste-noroeste con ráfagas de 16 kt

TAF: URWW 221658Z 2218/2303 33006G11MPS 9999 SCT030CB BKN100 TEMPO 2218/2224 30003G08MPS

Observaciones y pronósticos meteorológicos de más de 4000 aeropuertos (mensajes METAR y TAF).

Los puntos amarillos y rojos representan las estaciones disponibles.

Ponga el ratón en el punto deseado para ver el nombre de la estación.

Haga clic para ver las observaciones y los pronósticos meteorológicos.

Para cambiar el mapa : haga clic en los botones verdes con una cruz de color negro para hacer un zoom, en el botón verde con un guión para alejar o en las flechas verdes para mapas adyacentes.


METAR-TAF: